Time;durP1;ratioP1;P1;durP2;ratioP2;P2;SDS_P1;SDS_P2;PMS_P1;PMS_P2;Temp;Humidity;BMP_temperature;BMP_pressure;BME280_temperature;BME280_humidity;BME280_pressure;Samples;Min_cycle;Max_cycle;Signal;HPM_P1;HPM_P2
2021/06/13 00:01:24;;;;;;;;;;;;;;;19.82;62.68;100575.22;5020715;28;799;-39
2021/06/13 00:03:50;;;;;;;;;;;;;;;19.43;58.63;100572.72;5020382;28;733;-39
2021/06/13 00:06:15;;;;;;;;;;;;;;;19.51;60.10;100574.81;5020572;28;777;-39
2021/06/13 00:08:41;;;;;;;;;;;;;;;19.77;62.75;100569.75;5002412;28;818;-39
2021/06/13 00:11:06;;;;;;;;;;;;;;;20.12;63.53;100563.97;5002631;28;1147;-39
2021/06/13 00:13:32;;;;;;;;;;;;;;;20.34;63.51;100566.88;5020065;28;784;-40
2021/06/13 00:15:57;;;;;;;;;;;;;;;20.21;63.06;100564.09;5019538;28;1023;-39
2021/06/13 00:18:22;;;;;;;;;;;;;;;19.99;64.25;100565.53;5019617;28;1914;-40
2021/06/13 00:20:48;;;;;;;;;;;;;;;19.98;61.81;100558.41;5020351;28;768;-40
2021/06/13 00:23:14;;;;;;;;;;;;;;;19.52;58.12;100564.59;5020405;28;815;-40
2021/06/13 00:25:39;;;;;;;;;;;;;;;19.76;59.33;100567.28;5020023;28;805;-55
2021/06/13 00:28:05;;;;;;;;;;;;;;;19.96;61.96;100566.16;5019897;28;833;-53
2021/06/13 00:30:30;;;;;;;;;;;;;;;20.16;63.54;100560.28;5019596;28;1023;-39
2021/06/13 00:32:55;;;;;;;;;;;;;;;20.36;63.56;100561.03;5019763;28;776;-42
2021/06/13 00:35:21;;;;;;;;;;;;;;;20.17;63.43;100559.19;5019927;28;737;-39
2021/06/13 00:37:47;;;;;;;;;;;;;;;19.70;63.04;100551.91;5020192;28;813;-39
2021/06/13 00:40:13;;;;;;;;;;;;;;;19.22;61.23;100544.63;5019725;28;1910;-52
2021/06/13 00:42:43;;;;;;;;;;;;;;;19.35;58.22;100549.41;5002333;28;1286;-39
2021/06/13 00:45:09;;;;;;;;;;;;;;;19.78;61.37;100541.03;5019385;28;1043;-39
2021/06/13 00:47:35;;;;;;;;;;;;;;;20.13;61.73;100540.75;5020011;28;760;-42
2021/06/13 00:50:01;;;;;;;;;;;;;;;20.55;61.27;100546.31;5019722;28;811;-39
2021/06/13 00:52:26;;;;;;;;;;;;;;;20.20;62.25;100545.88;5001625;28;853;-49
2021/06/13 00:54:55;;;;;;;;;;;;;;;19.69;64.89;100542.84;5002233;28;1208;-55
2021/06/13 00:57:20;;;;;;;;;;;;;;;19.80;62.14;100538.81;5019904;28;716;-54
2021/06/13 00:59:46;;;;;;;;;;;;;;;20.03;57.18;100543.69;5019451;28;1973;-54
2021/06/13 01:02:11;;;;;;;;;;;;;;;19.78;55.97;100538.28;5019407;28;729;-40
2021/06/13 01:04:37;;;;;;;;;;;;;;;19.80;57.46;100538.00;5018426;28;748;-39
2021/06/13 01:07:18;;;;;;;;;;;;;;;19.80;56.71;100544.34;5019494;28;800;-39
2021/06/13 01:09:51;;;;;;;;;;;;;;;19.90;55.17;100542.53;5001443;28;1375;-54
2021/06/13 01:12:26;;;;;;;;;;;;;;;19.82;58.78;100541.25;5001965;28;1293;-39
2021/06/13 01:14:56;;;;;;;;;;;;;;;19.96;61.27;100546.84;5018742;28;992;-56
2021/06/13 01:17:25;;;;;;;;;;;;;;;20.12;62.84;100545.44;5018608;28;1077;-48
2021/06/13 01:20:10;;;;;;;;;;;;;;;20.31;63.90;100548.16;5018021;28;1910;-53
2021/06/13 01:22:52;;;;;;;;;;;;;;;20.40;64.82;100551.03;5019153;28;842;-39
2021/06/13 01:25:23;;;;;;;;;;;;;;;20.26;64.54;100548.25;5018970;28;748;-39
2021/06/13 01:27:52;;;;;;;;;;;;;;;20.28;64.64;100553.47;5018817;28;812;-56
2021/06/13 01:30:17;;;;;;;;;;;;;;;20.20;60.53;100540.34;5018084;28;980;-39
2021/06/13 01:32:43;;;;;;;;;;;;;;;20.22;56.48;100543.63;5018780;28;844;-51
2021/06/13 01:35:11;;;;;;;;;;;;;;;20.29;53.97;100544.06;5001196;28;962;-50
2021/06/13 01:37:41;;;;;;;;;;;;;;;20.30;55.41;100537.38;5000965;28;1219;-40
2021/06/13 01:40:07;;;;;;;;;;;;;;;20.10;55.67;100542.16;5017308;28;1918;-39
2021/06/13 01:42:36;;;;;;;;;;;;;;;20.09;57.18;100529.50;5018479;28;819;-42
2021/06/13 01:45:05;;;;;;;;;;;;;;;19.57;59.16;100540.56;5012400;28;1019;-39
2021/06/13 01:47:31;;;;;;;;;;;;;;;19.87;60.43;100548.66;5000986;28;1228;-41
2021/06/13 01:49:59;;;;;;;;;;;;;;;20.00;59.59;100539.59;5017103;28;879;-43
2021/06/13 01:52:26;;;;;;;;;;;;;;;19.66;60.03;100535.16;5001047;28;1187;-40
2021/06/13 01:54:51;;;;;;;;;;;;;;;19.96;59.68;100527.50;5017229;28;910;-54
2021/06/13 01:57:17;;;;;;;;;;;;;;;20.25;59.33;100526.47;5016848;28;864;-40
2021/06/13 02:00:05;;;;;;;;;;;;;;;20.09;59.73;100523.16;5017255;28;1898;-55
2021/06/13 02:02:34;;;;;;;;;;;;;;;20.05;60.88;100522.94;5018408;28;614;-54
2021/06/13 02:04:59;;;;;;;;;;;;;;;20.43;59.16;100521.97;5000609;28;1246;-52
2021/06/13 02:07:24;;;;;;;;;;;;;;;19.98;59.69;100519.78;5000817;28;1136;-54
2021/06/13 02:09:51;;;;;;;;;;;;;;;19.87;61.26;100515.56;5016682;28;1389;-53
2021/06/13 02:12:24;;;;;;;;;;;;;;;19.81;61.28;100517.56;5000578;28;1188;-56
2021/06/13 02:14:59;;;;;;;;;;;;;;;19.94;60.88;100521.50;5016720;28;984;-43
2021/06/13 02:17:32;;;;;;;;;;;;;;;19.15;60.63;100522.94;5000425;28;1274;-39
2021/06/13 02:20:03;;;;;;;;;;;;;;;19.71;60.62;100521.25;5000238;28;1976;-45
2021/06/13 02:22:32;;;;;;;;;;;;;;;19.92;62.37;100513.53;5017844;28;865;-39
2021/06/13 02:24:58;;;;;;;;;;;;;;;20.17;62.53;100520.53;5000420;28;1232;-41
2021/06/13 02:27:27;;;;;;;;;;;;;;;20.29;61.50;100514.50;5017397;28;842;-53
2021/06/13 02:29:53;;;;;;;;;;;;;;;20.43;61.72;100513.69;5016492;28;964;-54
2021/06/13 02:32:19;;;;;;;;;;;;;;;20.11;61.36;100516.19;5017578;28;773;-39
2021/06/13 02:34:46;;;;;;;;;;;;;;;19.43;61.60;100514.81;5000173;28;1458;-48
2021/06/13 02:37:14;;;;;;;;;;;;;;;19.04;60.80;100516.78;5000075;28;1211;-50
2021/06/13 02:39:39;;;;;;;;;;;;;;;18.97;59.71;100517.13;5015880;28;1909;-39
2021/06/13 02:42:14;;;;;;;;;;;;;;;19.67;60.46;100514.75;4999975;28;1351;-53
2021/06/13 02:44:47;;;;;;;;;;;;;;;19.89;58.76;100518.81;5017214;28;1011;-42
2021/06/13 02:47:13;;;;;;;;;;;;;;;19.80;58.11;100522.25;5017572;28;814;-39
2021/06/13 02:49:39;;;;;;;;;;;;;;;20.09;58.24;100518.47;5017482;28;781;-39
2021/06/13 02:52:08;;;;;;;;;;;;;;;20.42;58.78;100523.91;4999720;28;1102;-39
2021/06/13 02:54:34;;;;;;;;;;;;;;;19.91;59.72;100516.56;5016205;28;790;-39
2021/06/13 02:57:01;;;;;;;;;;;;;;;19.11;60.84;100514.47;4999819;28;1203;-54
2021/06/13 02:59:34;;;;;;;;;;;;;;;18.90;59.09;100516.69;4999177;28;1977;-39
2021/06/13 03:02:01;;;;;;;;;;;;;;;19.47;59.58;100516.72;5016868;28;824;-50
2021/06/13 03:04:30;;;;;;;;;;;;;;;19.91;60.00;100511.03;4984256;28;1375;-54
2021/06/13 03:06:56;;;;;;;;;;;;;;;20.30;59.68;100507.03;4983766;28;1082;-39
2021/06/13 03:09:30;;;;;;;;;;;;;;;20.21;60.81;100506.09;4999216;28;1108;-55
2021/06/13 03:11:56;;;;;;;;;;;;;;;19.78;63.07;100505.16;4999459;28;1504;-39
2021/06/13 03:14:22;;;;;;;;;;;;;;;19.75;62.67;100508.50;4999435;28;976;-40
2021/06/13 03:16:48;;;;;;;;;;;;;;;19.93;58.32;100514.31;4998846;28;1156;-40
2021/06/13 03:19:13;;;;;;;;;;;;;;;19.50;56.84;100504.22;4999421;28;1911;-48
2021/06/13 03:21:39;;;;;;;;;;;;;;;19.70;59.81;100508.63;5016987;28;848;-40
2021/06/13 03:24:05;;;;;;;;;;;;;;;20.00;62.11;100500.94;4999350;28;985;-41
2021/06/13 03:26:31;;;;;;;;;;;;;;;20.30;63.53;100507.03;4998708;28;1306;-51
2021/06/13 03:28:57;;;;;;;;;;;;;;;20.36;64.85;100505.81;4998934;28;983;-45
2021/06/13 03:31:23;;;;;;;;;;;;;;;20.21;64.85;100508.88;4999549;28;1108;-50
2021/06/13 03:33:50;;;;;;;;;;;;;;;19.94;65.90;100505.75;4999093;28;1218;-39
2021/06/13 03:36:16;;;;;;;;;;;;;;;19.75;64.05;100494.72;4998868;28;1224;-45
2021/06/13 03:38:43;;;;;;;;;;;;;;;19.77;59.74;100499.97;5014807;28;1909;-49
2021/06/13 03:41:14;;;;;;;;;;;;;;;19.79;57.20;100492.19;4980235;28;891;-51
2021/06/13 03:43:40;;;;;;;;;;;;;;;19.55;59.35;100492.31;4995574;28;848;-39
2021/06/13 03:46:06;;;;;;;;;;;;;;;19.48;59.64;100493.50;4997106;28;992;-41
2021/06/13 03:48:32;;;;;;;;;;;;;;;19.81;58.81;100485.28;4998930;28;808;-41
2021/06/13 03:50:57;;;;;;;;;;;;;;;19.64;61.15;100488.56;4999081;28;835;-39
2021/06/13 03:53:23;;;;;;;;;;;;;;;19.73;61.94;100488.69;4999036;28;878;-52
2021/06/13 03:55:49;;;;;;;;;;;;;;;19.85;61.95;100490.19;5010913;28;1379;-40
2021/06/13 03:58:15;;;;;;;;;;;;;;;19.69;63.30;100482.16;5008297;28;1882;-40
2021/06/13 04:00:41;;;;;;;;;;;;;;;19.68;64.26;100477.75;5014705;28;1296;-37
2021/06/13 04:03:07;;;;;;;;;;;;;;;19.29;62.89;100487.19;4998106;28;749;-38
2021/06/13 04:05:39;;;;;;;;;;;;;;;19.61;64.24;100471.78;4995833;28;1935;-39
2021/06/13 04:08:06;;;;;;;;;;;;;;;19.79;64.17;100478.38;4995020;28;908;-39
2021/06/13 04:10:31;;;;;;;;;;;;;;;19.78;64.22;100480.34;4994816;28;831;-38
2021/06/13 04:12:57;;;;;;;;;;;;;;;20.08;64.11;100471.84;4996893;28;810;-38
2021/06/13 04:15:22;;;;;;;;;;;;;;;19.99;64.28;100469.78;5008473;28;944;-40
2021/06/13 04:17:48;;;;;;;;;;;;;;;19.88;64.70;100468.34;5001741;28;1176;-38
2021/06/13 04:20:13;;;;;;;;;;;;;;;20.10;64.52;100469.59;4996464;28;1938;-46
2021/06/13 04:22:39;;;;;;;;;;;;;;;20.05;64.01;100462.22;4996698;28;812;-38
2021/06/13 04:25:05;;;;;;;;;;;;;;;20.08;62.22;100458.03;4997296;28;781;-52
2021/06/13 04:27:31;;;;;;;;;;;;;;;20.13;59.35;100475.31;4979549;28;737;-49
2021/06/13 04:30:00;;;;;;;;;;;;;;;20.26;58.94;100468.19;4996247;28;1058;-39
2021/06/13 04:32:25;;;;;;;;;;;;;;;20.11;62.05;100466.50;4996718;28;815;-38
2021/06/13 04:34:51;;;;;;;;;;;;;;;20.06;62.48;100458.31;4996541;28;749;-38
2021/06/13 04:37:17;;;;;;;;;;;;;;;20.10;63.39;100464.88;4996591;28;796;-39
2021/06/13 04:39:42;;;;;;;;;;;;;;;20.12;63.21;100468.16;4998979;28;1902;-38
2021/06/13 04:42:08;;;;;;;;;;;;;;;20.26;61.08;100470.09;5000067;28;817;-39
2021/06/13 04:44:34;;;;;;;;;;;;;;;20.13;58.65;100464.28;4999659;28;1012;-39
2021/06/13 04:46:59;;;;;;;;;;;;;;;20.33;59.19;100470.53;4999938;28;836;-39
2021/06/13 04:49:25;;;;;;;;;;;;;;;20.14;61.86;100462.34;5000289;28;815;-39
2021/06/13 04:51:51;;;;;;;;;;;;;;;20.13;62.31;100457.94;4982470;28;864;-39
2021/06/13 04:54:25;;;;;;;;;;;;;;;20.13;61.19;100464.28;5000110;28;744;-41
2021/06/13 04:56:54;;;;;;;;;;;;;;;20.30;59.27;100454.56;5000133;28;768;-39
2021/06/13 04:59:19;;;;;;;;;;;;;;;20.20;59.23;100460.28;4999555;28;1922;-40
2021/06/13 05:01:45;;;;;;;;;;;;;;;20.25;60.63;100460.19;4999571;28;816;-47
2021/06/13 05:04:10;;;;;;;;;;;;;;;19.86;61.75;100465.03;4999769;28;831;-40
2021/06/13 05:06:36;;;;;;;;;;;;;;;19.91;62.84;100467.72;4998659;28;753;-39
2021/06/13 05:09:01;;;;;;;;;;;;;;;20.10;63.04;100464.88;4999625;28;777;-39
2021/06/13 05:11:27;;;;;;;;;;;;;;;20.28;63.47;100465.91;4999724;28;745;-39
2021/06/13 05:13:52;;;;;;;;;;;;;;;20.19;63.57;100453.97;4999484;28;828;-41
2021/06/13 05:16:18;;;;;;;;;;;;;;;20.18;62.25;100453.13;4999230;28;995;-38
2021/06/13 05:18:43;;;;;;;;;;;;;;;20.13;60.99;100447.72;4999358;28;1909;-38
2021/06/13 05:21:09;;;;;;;;;;;;;;;20.10;60.40;100448.31;4999189;28;760;-38
2021/06/13 05:23:34;;;;;;;;;;;;;;;20.44;60.13;100451.78;4999286;28;841;-38
2021/06/13 05:26:02;;;;;;;;;;;;;;;20.41;62.12;100458.78;4999376;28;820;-38
2021/06/13 05:28:28;;;;;;;;;;;;;;;20.19;63.63;100456.72;4999089;28;853;-38
2021/06/13 05:30:55;;;;;;;;;;;;;;;20.22;62.51;100447.00;4999246;28;964;-38
2021/06/13 05:33:20;;;;;;;;;;;;;;;20.07;60.78;100454.44;4999210;28;893;-39
2021/06/13 05:35:47;;;;;;;;;;;;;;;20.15;58.09;100450.97;4999105;28;856;-39
2021/06/13 05:38:13;;;;;;;;;;;;;;;20.31;57.86;100458.97;4998913;28;1922;-39
2021/06/13 05:40:38;;;;;;;;;;;;;;;20.44;60.29;100454.56;4991716;28;1189;-39
2021/06/13 05:43:05;;;;;;;;;;;;;;;20.22;62.40;100460.81;4998575;28;816;-49
2021/06/13 05:45:30;;;;;;;;;;;;;;;20.36;61.83;100453.34;4998967;28;1044;-39
2021/06/13 05:47:56;;;;;;;;;;;;;;;20.31;60.29;100445.16;4998842;28;820;-39
2021/06/13 05:50:22;;;;;;;;;;;;;;;20.54;56.37;100436.94;4997931;28;789;-39
2021/06/13 05:52:47;;;;;;;;;;;;;;;20.51;54.90;100441.19;4998926;28;784;-39
2021/06/13 05:55:13;;;;;;;;;;;;;;;20.38;58.41;100434.50;4999156;28;836;-39
2021/06/13 05:57:38;;;;;;;;;;;;;;;20.46;60.56;100439.31;4998468;28;808;-39
2021/06/13 06:00:10;;;;;;;;;;;;;;;20.19;62.90;100440.16;4998335;28;1906;-40
2021/06/13 06:03:33;;;;;;;;;;;;;;;20.37;61.30;100438.41;5156092;27;1412;-37
2021/06/13 06:05:59;;;;;;;;;;;;;;;19.86;59.40;100436.66;5155493;27;811;-38
2021/06/13 06:08:27;;;;;;;;;;;;;;;19.93;58.09;100423.25;5155355;27;823;-52
2021/06/13 06:10:52;;;;;;;;;;;;;;;20.05;60.83;100433.78;5155152;27;763;-39
2021/06/13 06:13:17;;;;;;;;;;;;;;;20.05;63.27;100434.63;5155438;27;767;-38
2021/06/13 06:15:43;;;;;;;;;;;;;;;19.98;64.03;100428.69;5139391;27;1001;-39
2021/06/13 06:18:08;;;;;;;;;;;;;;;20.16;62.69;100441.59;5134258;28;823;-41
2021/06/13 06:20:34;;;;;;;;;;;;;;;20.26;59.73;100434.19;5134496;28;823;-38
2021/06/13 06:23:00;;;;;;;;;;;;;;;20.32;56.79;100433.81;5134258;28;1978;-40
2021/06/13 06:25:25;;;;;;;;;;;;;;;20.24;56.26;100430.94;5134384;28;878;-39
2021/06/13 06:27:51;;;;;;;;;;;;;;;20.45;59.19;100432.16;5134300;28;771;-39
2021/06/13 06:30:17;;;;;;;;;;;;;;;20.52;61.09;100432.56;5134169;27;1004;-39
2021/06/13 06:32:42;;;;;;;;;;;;;;;20.38;62.02;100426.22;5133976;28;743;-38
2021/06/13 06:35:08;;;;;;;;;;;;;;;20.65;60.41;100424.56;5134284;28;747;-38
2021/06/13 06:37:34;;;;;;;;;;;;;;;20.74;56.90;100425.50;5133255;28;819;-38
2021/06/13 06:40:00;;;;;;;;;;;;;;;20.10;56.64;100422.66;5144725;27;1158;-40
2021/06/13 06:42:25;;;;;;;;;;;;;;;20.33;57.95;100413.34;5154647;27;1913;-41
2021/06/13 06:44:52;;;;;;;;;;;;;;;20.41;60.33;100425.63;5146602;27;1012;-41
2021/06/13 06:47:18;;;;;;;;;;;;;;;20.21;63.17;100415.81;5133810;28;782;-41
2021/06/13 06:49:43;;;;;;;;;;;;;;;20.64;62.91;100414.66;5134233;28;758;-41
2021/06/13 06:52:09;;;;;;;;;;;;;;;20.48;63.14;100406.69;5133600;28;842;-40
2021/06/13 06:54:34;;;;;;;;;;;;;;;20.33;62.92;100404.25;5133909;28;803;-40
2021/06/13 06:57:00;;;;;;;;;;;;;;;20.39;62.04;100400.25;5133849;28;770;-41
2021/06/13 06:59:25;;;;;;;;;;;;;;;20.67;61.46;100402.97;5133714;27;966;-41
2021/06/13 07:01:50;;;;;;;;;;;;;;;20.50;62.82;100403.63;5133262;28;1913;-41
2021/06/13 07:04:16;;;;;;;;;;;;;;;20.74;62.87;100399.81;5133704;28;735;-41
2021/06/13 07:06:41;;;;;;;;;;;;;;;20.50;63.04;100390.63;5133441;28;806;-43
2021/06/13 07:09:07;;;;;;;;;;;;;;;20.20;65.35;100394.84;5132073;28;943;-41
2021/06/13 07:11:32;;;;;;;;;;;;;;;20.33;63.98;100391.25;5133397;27;738;-42
2021/06/13 07:13:58;;;;;;;;;;;;;;;20.54;61.83;100390.00;5125370;27;957;-41
2021/06/13 07:16:23;;;;;;;;;;;;;;;20.70;60.32;100387.75;5119648;28;779;-41
2021/06/13 07:18:49;;;;;;;;;;;;;;;20.81;59.59;100387.19;5119650;28;743;-41
2021/06/13 07:21:14;;;;;;;;;;;;;;;20.54;61.11;100385.31;5119494;28;1971;-42
2021/06/13 07:23:40;;;;;;;;;;;;;;;20.52;63.37;100387.53;5119524;28;818;-41
2021/06/13 07:26:05;;;;;;;;;;;;;;;20.54;64.27;100384.47;5119905;28;787;-41
2021/06/13 07:28:32;;;;;;;;;;;;;;;20.69;64.04;100381.41;5119271;28;814;-42
2021/06/13 07:30:58;;;;;;;;;;;;;;;20.63;63.73;100377.09;5119742;28;1000;-41
2021/06/13 07:33:24;;;;;;;;;;;;;;;20.73;61.95;100382.41;5119316;28;790;-41
2021/06/13 07:35:50;;;;;;;;;;;;;;;20.67;59.88;100378.94;5119175;28;858;-41
2021/06/13 07:38:16;;;;;;;;;;;;;;;20.45;58.76;100374.16;5119851;28;720;-41
2021/06/13 07:40:41;;;;;;;;;;;;;;;20.43;59.91;100365.38;5135755;27;1193;-41
2021/06/13 07:43:06;;;;;;;;;;;;;;;20.50;62.15;100362.19;5137742;27;1986;-41
2021/06/13 07:45:32;;;;;;;;;;;;;;;20.52;64.18;100370.97;5125486;27;1084;-41
2021/06/13 07:47:57;;;;;;;;;;;;;;;20.77;63.96;100355.78;5119130;28;739;-42
2021/06/13 07:50:23;;;;;;;;;;;;;;;20.96;63.43;100358.41;5118891;28;751;-41
2021/06/13 07:52:48;;;;;;;;;;;;;;;20.89;62.44;100357.19;5119270;28;807;-42
2021/06/13 07:55:15;;;;;;;;;;;;;;;20.79;61.06;100364.59;5118927;28;783;-42
2021/06/13 07:57:42;;;;;;;;;;;;;;;20.71;58.96;100362.59;5118830;28;763;-41
2021/06/13 08:00:08;;;;;;;;;;;;;;;20.40;57.29;100354.97;5118936;28;1009;-41
2021/06/13 08:02:35;;;;;;;;;;;;;;;20.70;56.92;100354.59;5118332;28;1886;-42
2021/06/13 08:05:07;;;;;;;;;;;;;;;21.14;57.85;100353.81;5119006;28;760;-41
2021/06/13 08:07:32;;;;;;;;;;;;;;;20.72;60.92;100352.34;5119282;28;763;-41
2021/06/13 08:09:58;;;;;;;;;;;;;;;20.19;64.10;100346.28;5118818;28;774;-41
2021/06/13 08:12:23;;;;;;;;;;;;;;;20.52;64.14;100355.25;5118653;28;771;-42
2021/06/13 08:14:49;;;;;;;;;;;;;;;20.70;64.38;100346.31;5118450;28;966;-41
2021/06/13 08:17:14;;;;;;;;;;;;;;;20.82;64.53;100350.16;5117079;28;913;-41
2021/06/13 08:19:40;;;;;;;;;;;;;;;20.73;64.45;100349.25;5118910;28;723;-42
2021/06/13 08:22:05;;;;;;;;;;;;;;;20.77;62.91;100350.28;5118476;28;1910;-42
2021/06/13 08:24:31;;;;;;;;;;;;;;;20.09;61.89;100350.09;5117102;28;791;-42
2021/06/13 08:26:56;;;;;;;;;;;;;;;19.94;59.46;100340.16;5117716;28;787;-42
2021/06/13 08:29:22;;;;;;;;;;;;;;;19.65;60.26;100334.91;5116974;28;1264;-42
2021/06/13 08:31:47;;;;;;;;;;;;;;;19.44;60.83;100328.97;5118058;28;806;-41
2021/06/13 08:34:13;;;;;;;;;;;;;;;19.62;62.23;100333.59;5116517;28;864;-41
2021/06/13 08:36:38;;;;;;;;;;;;;;;19.79;64.70;100330.25;5118306;28;751;-44
2021/06/13 08:39:04;;;;;;;;;;;;;;;19.88;65.52;100329.53;5120653;27;1090;-42
2021/06/13 08:41:29;;;;;;;;;;;;;;;20.00;63.71;100335.38;5138656;27;1966;-42
2021/06/13 08:43:55;;;;;;;;;;;;;;;19.89;62.15;100328.41;5138260;27;1087;-42
2021/06/13 08:46:21;;;;;;;;;;;;;;;19.97;64.56;100323.00;5118125;28;767;-42
2021/06/13 08:48:47;;;;;;;;;;;;;;;20.22;66.30;100322.78;5117883;28;779;-58
2021/06/13 08:51:12;;;;;;;;;;;;;;;20.39;66.55;100313.84;5116527;28;964;-42
2021/06/13 08:53:43;;;;;;;;;;;;;;;20.42;66.18;100315.97;5117586;28;747;-41
2021/06/13 08:56:09;;;;;;;;;;;;;;;20.37;64.78;100314.16;5117842;28;823;-42
2021/06/13 08:58:35;;;;;;;;;;;;;;;20.39;62.82;100316.59;5117540;28;815;-42
2021/06/13 09:01:00;;;;;;;;;;;;;;;20.59;59.35;100318.88;5117324;28;957;-54
2021/06/13 09:03:26;;;;;;;;;;;;;;;20.45;60.30;100309.81;5117245;28;1992;-41
2021/06/13 09:05:51;;;;;;;;;;;;;;;20.41;61.70;100306.06;5117614;28;898;-42
2021/06/13 09:08:17;;;;;;;;;;;;;;;20.63;62.84;100306.06;5117379;28;790;-42
2021/06/13 09:10:43;;;;;;;;;;;;;;;20.55;65.08;100306.00;5117797;28;827;-42
2021/06/13 09:13:08;;;;;;;;;;;;;;;20.59;65.61;100296.78;5117390;28;815;-41
2021/06/13 09:15:38;;;;;;;;;;;;;;;20.85;64.49;100297.03;5116843;28;946;-52
2021/06/13 09:18:03;;;;;;;;;;;;;;;20.83;63.36;100288.25;5117394;28;778;-41
2021/06/13 09:20:30;;;;;;;;;;;;;;;20.57;62.04;100276.97;5116175;28;783;-55
2021/06/13 09:23:05;;;;;;;;;;;;;;;20.91;59.01;100280.31;5117160;28;1964;-42
2021/06/13 09:25:31;;;;;;;;;;;;;;;20.55;57.89;100267.34;5117166;28;806;-42
2021/06/13 09:28:14;;;;;;;;;;;;;;;20.60;57.43;100272.75;5117184;28;756;-42
2021/06/13 09:30:42;;;;;;;;;;;;;;;20.46;59.93;100272.81;5131017;27;1164;-41
2021/06/13 09:33:10;;;;;;;;;;;;;;;20.73;60.64;100271.91;5137689;27;802;-41
2021/06/13 09:35:36;;;;;;;;;;;;;;;20.22;62.99;100262.84;5137868;27;749;-56
2021/06/13 09:38:09;;;;;;;;;;;;;;;20.38;64.27;100270.78;5137346;27;755;-41
2021/06/13 09:40:34;;;;;;;;;;;;;;;20.42;65.66;100267.06;5137606;27;1133;-55
2021/06/13 09:43:19;;;;;;;;;;;;;;;20.54;66.04;100262.94;5137245;27;1979;-41
2021/06/13 09:45:48;;;;;;;;;;;;;;;20.52;65.77;100266.03;5120312;27;925;-55
2021/06/13 09:48:14;;;;;;;;;;;;;;;20.63;64.39;100261.06;5116702;28;806;-42
2021/06/13 09:50:41;;;;;;;;;;;;;;;20.47;63.58;100255.13;5117060;28;850;-41
2021/06/13 09:53:21;;;;;;;;;;;;;;;20.56;61.90;100255.19;5116896;28;779;-42
2021/06/13 09:55:47;;;;;;;;;;;;;;;20.32;61.34;100256.28;5116567;28;799;-42
2021/06/13 09:58:14;;;;;;;;;;;;;;;20.35;60.54;100256.47;5117380;28;760;-42
2021/06/13 10:00:40;;;;;;;;;;;;;;;20.32;61.75;100250.75;5116508;28;1021;-42
2021/06/13 10:03:19;;;;;;;;;;;;;;;20.49;62.69;100256.41;5115163;28;1988;-55
2021/06/13 10:05:55;;;;;;;;;;;;;;;20.31;64.83;100249.13;5116622;28;767;-42
2021/06/13 10:08:20;;;;;;;;;;;;;;;20.40;65.35;100251.94;5116673;28;763;-42
2021/06/13 10:10:45;;;;;;;;;;;;;;;20.41;65.65;100246.13;5116494;28;802;-56
2021/06/13 10:13:11;;;;;;;;;;;;;;;20.57;65.49;100251.28;5116770;28;763;-42
2021/06/13 10:15:36;;;;;;;;;;;;;;;20.54;65.82;100235.31;5115055;28;1025;-42
2021/06/13 10:18:11;;;;;;;;;;;;;;;20.57;65.90;100240.25;5116322;28;759;-41
2021/06/13 10:20:37;;;;;;;;;;;;;;;20.72;65.27;100250.94;5115085;28;898;-42
2021/06/13 10:23:04;;;;;;;;;;;;;;;20.68;65.53;100253.50;5116615;28;1910;-42
2021/06/13 10:25:30;;;;;;;;;;;;;;;20.76;65.41;100243.66;5116220;28;754;-42
2021/06/13 10:27:55;;;;;;;;;;;;;;;20.80;65.42;100243.81;5116534;28;762;-42
2021/06/13 10:30:21;;;;;;;;;;;;;;;20.36;64.08;100232.44;5115286;28;1020;-42
2021/06/13 10:32:47;;;;;;;;;;;;;;;20.07;61.10;100236.41;5115130;28;743;-41
2021/06/13 10:35:12;;;;;;;;;;;;;;;19.53;58.91;100240.84;5115199;28;799;-41
2021/06/13 10:37:38;;;;;;;;;;;;;;;19.36;56.16;100224.91;5116449;28;977;-41
2021/06/13 10:40:03;;;;;;;;;;;;;;;19.12;54.10;100225.91;5127189;28;1156;-41
2021/06/13 10:42:29;;;;;;;;;;;;;;;18.90;53.77;100218.31;5136991;28;1971;-42
2021/06/13 10:44:56;;;;;;;;;;;;;;;19.27;56.78;100222.84;5128187;28;968;-46
2021/06/13 10:47:22;;;;;;;;;;;;;;;19.47;60.46;100221.66;5116313;28;802;-42
2021/06/13 10:49:48;;;;;;;;;;;;;;;19.67;62.76;100212.13;5119222;28;770;-42
2021/06/13 10:52:26;;;;;;;;;;;;;;;19.72;64.65;100197.41;5120171;28;806;-41
2021/06/13 10:54:52;;;;;;;;;;;;;;;19.80;66.16;100196.72;5120227;28;735;-42
2021/06/13 10:57:18;;;;;;;;;;;;;;;19.91;66.67;100183.50;5118884;27;916;-42
2021/06/13 10:59:47;;;;;;;;;;;;;;;19.98;66.57;100177.56;5118861;28;1189;-42
2021/06/13 11:02:21;;;;;;;;;;;;;;;20.05;67.03;100175.19;5118794;28;1948;-41
2021/06/13 11:04:50;;;;;;;;;;;;;;;19.95;67.38;100158.84;5120009;28;799;-42
2021/06/13 11:07:35;;;;;;;;;;;;;;;20.08;67.05;100162.72;5119640;28;747;-56
2021/06/13 11:10:07;;;;;;;;;;;;;;;20.21;66.80;100156.31;5119818;28;874;-41
2021/06/13 11:12:39;;;;;;;;;;;;;;;20.26;66.59;100156.19;5120478;28;751;-42
2021/06/13 11:15:05;;;;;;;;;;;;;;;20.36;66.23;100146.84;5119697;28;957;-42
2021/06/13 11:17:51;;;;;;;;;;;;;;;20.51;65.83;100140.94;5119421;28;798;-42
2021/06/13 11:22:54;;;;;;;;;;;;;;;20.37;66.14;100139.38;5119377;28;1921;-43
2021/06/13 11:25:20;;;;;;;;;;;;;;;20.31;66.37;100131.22;5119668;28;787;-41
2021/06/13 11:28:04;;;;;;;;;;;;;;;20.38;66.11;100122.47;5119287;28;890;-47
2021/06/13 11:30:29;;;;;;;;;;;;;;;20.63;65.12;100118.25;5119271;28;969;-42
2021/06/13 11:32:59;;;;;;;;;;;;;;;20.64;65.07;100102.50;5119446;28;839;-52
2021/06/13 11:35:26;;;;;;;;;;;;;;;20.65;64.72;100098.56;5119444;28;843;-54
2021/06/13 11:38:10;;;;;;;;;;;;;;;20.56;65.33;100095.78;5118924;28;771;-42
2021/06/13 11:40:55;;;;;;;;;;;;;;;20.52;65.46;100092.03;5133869;27;1087;-42
2021/06/13 11:43:21;;;;;;;;;;;;;;;20.53;64.98;100093.66;5139579;27;1905;-41
2021/06/13 11:46:03;;;;;;;;;;;;;;;20.24;63.63;100100.47;5123408;27;957;-41
2021/06/13 11:48:29;;;;;;;;;;;;;;;20.26;65.19;100092.69;5118897;28;823;-41
2021/06/13 11:51:07;;;;;;;;;;;;;;;20.48;64.48;100078.06;5117275;28;852;-42
2021/06/13 11:53:47;;;;;;;;;;;;;;;20.51;64.47;100073.84;5119239;28;732;-41
2021/06/13 11:56:31;;;;;;;;;;;;;;;20.57;63.95;100072.56;5118816;28;786;-41
2021/06/13 11:58:57;;;;;;;;;;;;;;;20.75;62.92;100064.38;5118325;28;1009;-41
2021/06/13 12:01:23;;;;;;;;;;;;;;;20.73;63.30;100072.16;5118705;28;1905;-41
2021/06/13 12:03:48;;;;;;;;;;;;;;;20.45;64.48;100067.63;5117602;28;743;-41
2021/06/13 12:06:15;;;;;;;;;;;;;;;20.52;64.59;100070.75;5118545;28;874;-41
2021/06/13 12:08:41;;;;;;;;;;;;;;;20.48;64.97;100089.09;5100749;28;1112;-42
2021/06/13 12:11:07;;;;;;;;;;;;;;;20.44;65.37;100104.66;5118675;28;835;-56
2021/06/13 12:13:32;;;;;;;;;;;;;;;20.49;64.34;100121.09;5118441;28;752;-41
2021/06/13 12:15:58;;;;;;;;;;;;;;;20.10;63.49;100141.13;5118226;28;957;-47
2021/06/13 12:18:23;;;;;;;;;;;;;;;19.83;62.72;100094.00;5118346;28;786;-42
2021/06/13 12:20:55;;;;;;;;;;;;;;;19.88;61.04;100075.69;5118230;28;818;-42
2021/06/13 12:23:31;;;;;;;;;;;;;;;19.65;60.00;100112.31;5118385;28;1907;-42
2021/06/13 12:28:40;;;;;;;;;;;;;;;19.21;60.27;100096.47;5117811;28;760;-42
2021/06/13 12:31:06;;;;;;;;;;;;;;;19.31;61.03;100112.81;5118512;28;1032;-42
2021/06/13 12:33:35;;;;;;;;;;;;;;;19.41;62.07;100134.63;5118162;28;815;-41
2021/06/13 12:36:03;;;;;;;;;;;;;;;19.21;63.20;100141.41;5118167;28;770;-41
2021/06/13 12:38:28;;;;;;;;;;;;;;;19.33;63.32;100149.13;5117973;28;846;-42
2021/06/13 12:40:55;;;;;;;;;;;;;;;19.27;63.60;100167.72;5135017;27;1432;-41
2021/06/13 12:43:30;;;;;;;;;;;;;;;19.30;64.03;100174.56;5138501;27;1905;-42
2021/06/13 12:45:56;;;;;;;;;;;;;;;19.36;64.10;100192.63;5121309;27;949;-55
2021/06/13 12:48:21;;;;;;;;;;;;;;;19.39;64.16;100214.09;5117556;28;814;-42
2021/06/13 12:50:47;;;;;;;;;;;;;;;19.52;64.55;100250.22;5118117;28;751;-42
2021/06/13 12:53:15;;;;;;;;;;;;;;;19.48;65.19;100245.31;5118536;28;808;-42
2021/06/13 12:55:41;;;;;;;;;;;;;;;19.39;65.41;100249.94;5118010;28;795;-42
2021/06/13 12:58:07;;;;;;;;;;;;;;;19.18;63.86;100248.66;5117388;28;815;-53
2021/06/13 13:00:33;;;;;;;;;;;;;;;19.20;63.69;100246.44;5131593;27;1075;-40